Terminal Aerodrome Forecast
Issued by NWS

Home | Current Version | Previous Version | Text Only | Print | Product List | Glossary On
Versions: 1 2 3 4 5 6 7 8 9 10 11 12 13 14 15
000
FTUS42 KMLB 260541
TAFISM
TAF
KISM 260541Z 2606/2706 24005KT P6SM SCT020 BKN250
     FM261100 24009KT P6SM VCSH SCT020 SCT060 BKN110
     FM261500 26015G25KT P6SM VCSH SCT035 BKN050 BKN100
     FM262300 25008KT P6SM VCSH SCT050 BKN150
      AMD NOT SKED TIL 261200=

USA.gov is the U.S. government's official web portal to all federal, state and local government web resources and services.